Time;durP1;ratioP1;P1;durP2;ratioP2;P2;SDS_P1;SDS_P2;PMS_P1;PMS_P2;Temp;Humidity;BMP_temperature;BMP_pressure;BME280_temperature;BME280_humidity;BME280_pressure;Samples;Min_cycle;Max_cycle;Signal;HPM_P1;HPM_P2
2023/08/03 00:00:18;;;;;;;0.10;0.10;;;15.60;99.90;;;;;;5030395;28;19921;-64
2023/08/03 00:02:45;;;;;;;;;;;15.80;99.90;;;;;;5030444;28;20057;-64
2023/08/03 00:05:10;;;;;;;0.20;0.20;;;16.10;99.90;;;;;;5030359;28;19929;-65
2023/08/03 00:07:36;;;;;;;;;;;16.10;99.90;;;;;;5030637;28;20614;-65
2023/08/03 00:10:02;;;;;;;0.20;0.20;;;16.00;99.90;;;;;;5030240;28;19932;-65
2023/08/03 00:12:28;;;;;;;0.10;0.10;;;15.70;99.90;;;;;;5030126;28;20090;-63
2023/08/03 00:14:54;;;;;;;;;;;16.50;99.90;;;;;;5030547;28;20049;-64
2023/08/03 00:17:19;;;;;;;0.10;0.10;;;16.10;99.90;;;;;;5030114;28;19921;-64
2023/08/03 00:19:45;;;;;;;;;;;15.80;99.90;;;;;;5030451;28;20079;-64
2023/08/03 00:22:10;;;;;;;2.17;0.60;;;16.40;99.90;;;;;;5029027;28;19925;-64
2023/08/03 00:24:36;;;;;;;;;;;16.40;99.90;;;;;;5030132;28;20405;-65
2023/08/03 00:27:02;;;;;;;0.98;0.63;;;15.90;99.90;;;;;;5029291;28;19977;-65
2023/08/03 00:29:28;;;;;;;;;;;15.70;99.90;;;;;;5030377;28;20088;-64
2023/08/03 00:31:53;;;;;;;0.17;0.17;;;16.40;99.90;;;;;;5029802;28;20418;-64
2023/08/03 00:34:19;;;;;;;;;;;15.80;99.90;;;;;;5029327;28;20049;-64
2023/08/03 00:36:45;;;;;;;0.10;0.10;;;15.70;99.90;;;;;;5029882;28;19925;-64
2023/08/03 00:39:10;;;;;;;;;;;16.40;99.90;;;;;;5029121;28;20049;-64
2023/08/03 00:41:36;;;;;;;0.10;0.10;;;16.50;99.90;;;;;;5029767;28;19976;-64
2023/08/03 00:44:01;;;;;;;;;;;16.00;99.90;;;;;;5030211;28;20053;-65
2023/08/03 00:46:27;;;;;;;0.10;0.10;;;15.60;99.90;;;;;;5029679;28;20333;-64
2023/08/03 00:48:53;;;;;;;;;;;16.00;99.90;;;;;;5030077;28;20056;-64
2023/08/03 00:51:18;;;;;;;0.00;0.00;;;16.50;99.90;;;;;;5029649;28;19921;-64
2023/08/03 00:53:45;;;;;;;;;;;16.30;99.90;;;;;;5029952;28;20053;-63
2023/08/03 00:56:12;;;;;;;0.10;0.10;;;16.40;99.90;;;;;;5029616;28;19944;-64
2023/08/03 00:58:40;;;;;;;0.10;0.10;;;16.60;99.90;;;;;;5029478;28;20102;-64
2023/08/03 01:01:06;;;;;;;0.10;0.10;;;15.90;99.90;;;;;;5028108;28;20154;-65
2023/08/03 01:03:32;;;;;;;;;;;15.60;99.90;;;;;;5028278;28;20063;-64
2023/08/03 01:05:58;;;;;;;0.10;0.10;;;16.40;99.90;;;;;;5029421;28;20002;-65
2023/08/03 01:08:24;;;;;;;;;;;16.20;99.90;;;;;;5029507;28;20126;-64
2023/08/03 01:10:51;;;;;;;0.47;0.47;;;16.10;99.90;;;;;;5029329;28;19921;-64
2023/08/03 01:13:17;;;;;;;0.10;0.10;;;15.60;99.90;;;;;;5029193;28;20094;-65
2023/08/03 01:15:43;;;;;;;0.30;0.20;;;15.70;99.90;;;;;;5029308;28;20038;-64
2023/08/03 01:18:08;;;;;;;;;;;15.70;99.90;;;;;;5029641;28;20152;-64
2023/08/03 01:20:37;;;;;;;0.10;0.10;;;16.40;99.90;;;;;;5029155;28;19921;-64
2023/08/03 01:23:06;;;;;;;0.10;0.10;;;16.40;99.90;;;;;;5029043;28;20042;-63
2023/08/03 01:25:32;;;;;;;0.10;0.10;;;16.00;99.90;;;;;;5029062;28;20130;-65
2023/08/03 01:27:58;;;;;;;0.10;0.10;;;16.50;99.90;;;;;;5029025;28;20049;-63
2023/08/03 01:30:24;;;;;;;0.13;0.13;;;15.70;99.90;;;;;;5027796;28;20057;-64
2023/08/03 01:32:50;;;;;;;;;;;16.60;99.90;;;;;;5029312;28;20045;-64
2023/08/03 01:35:16;;;;;;;0.10;0.10;;;16.30;99.90;;;;;;5029110;28;19921;-64
2023/08/03 01:37:42;;;;;;;0.10;0.10;;;15.60;99.90;;;;;;5029208;28;20061;-67
2023/08/03 01:40:08;;;;;;;;;;;16.50;99.90;;;;;;5029658;28;20393;-65
2023/08/03 01:42:34;;;;;;;0.10;0.10;;;15.80;99.90;;;;;;5028821;28;19921;-65
2023/08/03 01:44:59;;;;;;;;;;;16.10;99.90;;;;;;5029178;28;20045;-64
2023/08/03 01:47:25;;;;;;;0.20;0.20;;;16.50;99.90;;;;;;5028717;28;19997;-65
2023/08/03 01:49:50;;;;;;;0.10;0.10;;;16.20;99.90;;;;;;5028663;28;20553;-64
2023/08/03 01:52:16;;;;;;;;;;;16.60;99.90;;;;;;5029170;28;20481;-64
2023/08/03 01:54:42;;;;;;;0.10;0.10;;;16.30;99.90;;;;;;5028704;28;20361;-64
2023/08/03 01:57:07;;;;;;;;;;;15.70;99.90;;;;;;5029278;28;20670;-65
2023/08/03 01:59:33;;;;;;;0.10;0.10;;;15.60;99.90;;;;;;5028613;28;19925;-64
2023/08/03 02:01:59;;;;;;;0.10;0.10;;;16.30;99.90;;;;;;5028344;28;20053;-65
2023/08/03 02:04:25;;;;;;;;;;;16.00;99.90;;;;;;5029260;28;20067;-65
2023/08/03 02:06:55;;;;;;;0.17;0.17;;;15.50;99.90;;;;;;5028592;28;19929;-66
2023/08/03 02:09:21;;;;;;;0.10;0.10;;;15.80;99.90;;;;;;5028519;28;20054;-65
2023/08/03 02:11:46;;;;;;;;;;;15.80;99.90;;;;;;5028863;28;20099;-65
2023/08/03 02:14:12;;;;;;;0.20;0.20;;;15.90;99.90;;;;;;5028376;28;19993;-65
2023/08/03 02:16:38;;;;;;;;;;;16.60;99.90;;;;;;5028836;28;20056;-64
2023/08/03 02:19:03;;;;;;;0.10;0.10;;;16.30;99.90;;;;;;5028387;28;20413;-64
2023/08/03 02:21:29;;;;;;;;;;;16.00;99.90;;;;;;5029002;28;20053;-65
2023/08/03 02:23:54;;;;;;;0.00;0.00;;;16.30;99.90;;;;;;5028685;28;19989;-67
2023/08/03 02:26:20;;;;;;;;;;;16.30;99.90;;;;;;5028703;28;20385;-65
2023/08/03 02:28:46;;;;;;;0.28;0.28;;;15.90;99.90;;;;;;5028360;28;20303;-64
2023/08/03 02:31:11;;;;;;;;;;;16.40;99.90;;;;;;5028678;28;20050;-66
2023/08/03 02:33:37;;;;;;;0.10;0.10;;;15.20;99.90;;;;;;5027752;28;19922;-65
2023/08/03 02:36:03;;;;;;;;;;;15.60;99.90;;;;;;5028705;28;20060;-65
2023/08/03 02:38:28;;;;;;;0.10;0.10;;;15.20;99.90;;;;;;5028245;28;19921;-65
2023/08/03 02:40:54;;;;;;;;;;;15.60;99.90;;;;;;5028815;28;20066;-64
2023/08/03 02:43:19;;;;;;;0.20;0.20;;;16.10;99.90;;;;;;5028083;28;19921;-65
2023/08/03 02:45:45;;;;;;;;;;;15.30;99.90;;;;;;5028567;28;20046;-64
2023/08/03 02:48:11;;;;;;;0.10;0.10;;;15.50;99.90;;;;;;5028094;28;20464;-64
2023/08/03 02:50:36;;;;;;;;;;;16.30;99.90;;;;;;5031870;28;20056;-65
2023/08/03 02:53:02;;;;;;;0.00;0.00;;;16.40;99.90;;;;;;5031411;28;19931;-64
2023/08/03 02:55:27;;;;;;;;;;;15.90;99.90;;;;;;5030879;28;20053;-64
2023/08/03 02:57:53;;;;;;;0.20;0.20;;;15.80;99.90;;;;;;5031417;28;19928;-65
2023/08/03 03:00:20;;;;;;;;;;;16.10;99.90;;;;;;5031899;27;20041;-64
2023/08/03 03:02:45;;;;;;;0.10;0.10;;;16.20;99.90;;;;;;5031222;28;19986;-64
2023/08/03 03:05:11;;;;;;;;;;;15.20;99.90;;;;;;5031959;28;20061;-65
2023/08/03 03:07:37;;;;;;;0.40;0.40;;;16.00;99.90;;;;;;5031281;28;20012;-65
2023/08/03 03:10:02;;;;;;;;;;;16.20;99.90;;;;;;5030393;28;20126;-65
2023/08/03 03:12:28;;;;;;;0.10;0.10;;;15.60;99.90;;;;;;5031152;28;19932;-66
2023/08/03 03:14:54;;;;;;;;;;;15.30;99.90;;;;;;5031576;28;20049;-65
2023/08/03 03:17:19;;;;;;;0.30;0.30;;;15.90;99.90;;;;;;5031350;28;20008;-65
2023/08/03 03:19:45;;;;;;;;;;;16.30;99.90;;;;;;5031702;28;20050;-65
2023/08/03 03:22:11;;;;;;;0.10;0.10;;;15.90;99.90;;;;;;5031189;28;20015;-65
2023/08/03 03:24:36;;;;;;;;;;;15.60;99.90;;;;;;5031718;28;20045;-64
2023/08/03 03:27:02;;;;;;;0.20;0.20;;;15.90;99.90;;;;;;5031215;28;19965;-65
2023/08/03 03:29:28;;;;;;;;;;;16.20;99.90;;;;;;5031535;28;20053;-64
2023/08/03 03:31:53;;;;;;;0.10;0.10;;;16.60;99.90;;;;;;5031230;28;19925;-68
2023/08/03 03:34:19;;;;;;;;;;;16.40;99.90;;;;;;5031425;28;20045;-65
2023/08/03 03:36:45;;;;;;;0.20;0.20;;;15.40;99.90;;;;;;5029977;28;19925;-65
2023/08/03 03:39:10;;;;;;;;;;;15.50;99.90;;;;;;5014168;28;20045;-65
2023/08/03 03:41:36;;;;;;;0.70;0.30;;;15.10;99.90;;;;;;5031008;28;19921;-65
2023/08/03 03:44:01;;;;;;;;;;;15.40;99.90;;;;;;5031246;28;20083;-65
2023/08/03 03:46:27;;;;;;;0.10;0.10;;;15.40;99.90;;;;;;5030533;28;19921;-65
2023/08/03 03:48:52;;;;;;;;;;;16.10;99.90;;;;;;5031082;28;20045;-65
2023/08/03 03:51:20;;;;;;;0.10;0.10;;;16.10;99.90;;;;;;5030607;28;19970;-64
2023/08/03 03:53:45;;;;;;;0.20;0.20;;;16.20;99.90;;;;;;5030493;28;20129;-65
2023/08/03 03:56:11;;;;;;;;;;;16.30;99.90;;;;;;5030556;28;20483;-65
2023/08/03 03:58:37;;;;;;;0.20;0.20;;;16.50;99.90;;;;;;5030472;28;19921;-65
2023/08/03 04:01:02;;;;;;;;;;;15.70;99.90;;;;;;5030668;28;20041;-64
2023/08/03 04:03:28;;;;;;;0.30;0.30;;;16.70;99.90;;;;;;5030372;28;19928;-65
2023/08/03 04:05:53;;;;;;;;;;;16.50;99.90;;;;;;5029490;28;20466;-67
2023/08/03 04:08:19;;;;;;;0.15;0.15;;;18.40;99.90;;;;;;5030293;28;19931;-65
2023/08/03 04:10:45;;;;;;;;;;;15.60;99.90;;;;;;5030642;28;20104;-67
2023/08/03 04:13:10;;;;;;;0.20;0.20;;;15.70;99.90;;;;;;5029879;28;19925;-65
2023/08/03 04:15:36;;;;;;;;;;;16.10;99.90;;;;;;5030579;28;20056;-65
2023/08/03 04:18:02;;;;;;;0.20;0.20;;;16.20;99.90;;;;;;5030285;28;20007;-65
2023/08/03 04:20:27;;;;;;;;;;;16.70;99.90;;;;;;5030502;28;20041;-65
2023/08/03 04:22:53;;;;;;;0.10;0.10;;;16.20;99.90;;;;;;5030048;28;20012;-65
2023/08/03 04:25:18;;;;;;;;;;;16.30;99.90;;;;;;5030466;28;20401;-65
2023/08/03 04:27:44;;;;;;;0.10;0.10;;;15.30;99.90;;;;;;5028647;28;19925;-66
2023/08/03 04:30:11;;;;;;;;;;;16.50;99.90;;;;;;5030483;28;20084;-65
2023/08/03 04:32:37;;;;;;;0.08;0.08;;;16.30;99.90;;;;;;5029845;28;20459;-65
2023/08/03 04:35:03;;;;;;;0.20;0.20;;;16.70;99.90;;;;;;5028824;28;20392;-64
2023/08/03 04:37:29;;;;;;;0.20;0.20;;;16.80;99.90;;;;;;5029866;28;20049;-65
2023/08/03 04:39:55;;;;;;;;;;;16.40;99.90;;;;;;5030220;28;20060;-65
2023/08/03 04:42:21;;;;;;;0.20;0.20;;;16.70;99.90;;;;;;5029781;28;19925;-65
2023/08/03 04:44:46;;;;;;;;;;;16.50;99.90;;;;;;5030167;28;20057;-65
2023/08/03 04:47:12;;;;;;;0.10;0.10;;;15.40;99.90;;;;;;5029798;28;20486;-64
2023/08/03 04:49:38;;;;;;;;;;;16.40;99.90;;;;;;5030052;28;20046;-65
2023/08/03 04:52:04;;;;;;;0.10;0.10;;;16.90;99.90;;;;;;5029547;28;19921;-65
2023/08/03 04:54:30;;;;;;;0.10;0.10;;;15.70;99.90;;;;;;5132740;27;20053;-65
2023/08/03 04:56:55;;;;;;;;;;;15.70;99.90;;;;;;5028975;28;20061;-65
2023/08/03 04:59:21;;;;;;;0.10;0.10;;;15.70;99.90;;;;;;5029648;28;19929;-65
2023/08/03 05:01:47;;;;;;;;;;;15.90;99.90;;;;;;5029951;28;20049;-65
2023/08/03 05:04:12;;;;;;;0.10;0.10;;;15.70;99.90;;;;;;5028267;28;19924;-65
2023/08/03 05:06:38;;;;;;;;;;;15.60;99.90;;;;;;5029855;28;20041;-65
2023/08/03 05:09:04;;;;;;;0.10;0.10;;;16.30;99.90;;;;;;5029400;28;19925;-67
2023/08/03 05:11:29;;;;;;;;;;;16.30;99.90;;;;;;5029221;28;20496;-65
2023/08/03 05:13:55;;;;;;;0.13;0.13;;;15.60;99.90;;;;;;5029311;28;19961;-64
2023/08/03 05:16:24;;;;;;;;;;;15.40;99.90;;;;;;5029763;28;20124;-65
2023/08/03 05:18:50;;;;;;;0.20;0.20;;;15.70;99.90;;;;;;5029354;28;19925;-65
2023/08/03 05:21:17;;;;;;;0.10;0.10;;;15.10;99.90;;;;;;5029171;28;20049;-65
2023/08/03 05:23:43;;;;;;;0.10;0.10;;;15.30;99.90;;;;;;5029270;28;20400;-65
2023/08/03 05:26:09;;;;;;;;;;;15.00;99.90;;;;;;5029793;28;20374;-64
2023/08/03 05:28:34;;;;;;;0.10;0.10;;;15.20;99.90;;;;;;5029142;28;19936;-65
2023/08/03 05:31:00;;;;;;;;;;;15.10;99.90;;;;;;5029494;28;20061;-67
2023/08/03 05:33:29;;;;;;;0.10;0.10;;;15.30;99.90;;;;;;5028641;28;19921;-65
2023/08/03 05:35:54;;;;;;;0.10;0.10;;;15.20;99.90;;;;;;5028700;28;20474;-65
2023/08/03 05:38:20;;;;;;;;;;;16.20;99.90;;;;;;5029334;28;20049;-67
2023/08/03 05:40:45;;;;;;;0.10;0.10;;;16.40;99.90;;;;;;5027925;28;20456;-66
2023/08/03 05:43:12;;;;;;;;;;;15.40;99.90;;;;;;5029433;28;20050;-65
2023/08/03 05:45:43;;;;;;;0.20;0.20;;;16.40;99.90;;;;;;5028920;28;19925;-66
2023/08/03 05:48:22;;;;;;;0.10;0.10;;;15.60;99.90;;;;;;5028841;28;20056;-64
2023/08/03 05:50:49;;;;;;;0.10;0.10;;;16.40;99.90;;;;;;5028858;28;20405;-64
2023/08/03 05:53:16;;;;;;;0.10;0.10;;;16.20;99.90;;;;;;5028709;28;20049;-66
2023/08/03 05:55:43;;;;;;;0.20;0.20;;;16.80;99.90;;;;;;5028719;28;20096;-64
2023/08/03 05:58:11;;;;;;;0.10;0.10;;;16.80;99.90;;;;;;5028655;28;20049;-66
2023/08/03 06:00:39;;;;;;;0.13;0.13;;;16.10;99.90;;;;;;5028611;28;20412;-65
2023/08/03 06:03:04;;;;;;;0.20;0.20;;;16.10;99.90;;;;;;5028549;28;20062;-64
2023/08/03 06:05:35;;;;;;;;;;;15.80;99.90;;;;;;5029040;28;20050;-66
2023/08/03 06:08:01;;;;;;;0.17;0.17;;;15.60;99.90;;;;;;5028336;28;20399;-64
2023/08/03 06:10:28;;;;;;;;;;;16.90;99.90;;;;;;5028888;28;20045;-64
2023/08/03 06:12:53;;;;;;;0.28;0.28;;;17.50;99.90;;;;;;5028411;28;19944;-64
2023/08/03 06:15:20;;;;;;;;;;;17.50;99.90;;;;;;5028898;28;20481;-65
2023/08/03 06:17:45;;;;;;;0.30;0.30;;;17.10;99.90;;;;;;5028435;28;19936;-65
2023/08/03 06:20:14;;;;;;;;;;;17.20;99.90;;;;;;5028786;28;20041;-65
2023/08/03 06:22:40;;;;;;;0.30;0.30;;;17.40;99.90;;;;;;5028152;28;20381;-65
2023/08/03 06:25:09;;;;;;;0.28;0.28;;;17.20;99.90;;;;;;5031093;28;20053;-64
2023/08/03 06:27:39;;;;;;;0.10;0.10;;;16.70;99.90;;;;;;5031895;28;20099;-64
2023/08/03 06:30:05;;;;;;;0.10;0.10;;;16.70;99.90;;;;;;5031886;28;20053;-64
2023/08/03 06:32:32;;;;;;;1.20;0.20;;;16.80;99.90;;;;;;5031852;28;20081;-65
2023/08/03 06:34:59;;;;;;;0.20;0.20;;;16.60;99.90;;;;;;5031963;28;20128;-64
2023/08/03 06:37:27;;;;;;;0.10;0.10;;;17.60;99.90;;;;;;5031929;28;20057;-65
2023/08/03 06:39:53;;;;;;;0.10;0.10;;;17.80;99.90;;;;;;5031701;28;20056;-65
2023/08/03 06:42:19;;;;;;;;;;;16.80;99.90;;;;;;5030843;28;20128;-64
2023/08/03 06:44:44;;;;;;;0.00;0.00;;;17.80;99.90;;;;;;5031613;28;19932;-66
2023/08/03 06:47:10;;;;;;;;;;;17.30;99.90;;;;;;5030678;28;20101;-64
2023/08/03 06:49:36;;;;;;;0.10;0.10;;;17.60;99.90;;;;;;5031473;28;19928;-67
2023/08/03 06:52:02;;;;;;;0.10;0.10;;;17.60;99.90;;;;;;5031517;28;20042;-64
2023/08/03 06:54:28;;;;;;;0.10;0.10;;;18.20;99.90;;;;;;5031468;28;20549;-65
2023/08/03 06:56:54;;;;;;;0.10;0.10;;;18.30;99.90;;;;;;5031550;28;20061;-64
2023/08/03 06:59:21;;;;;;;0.10;0.10;;;17.60;99.90;;;;;;5031429;28;20121;-64
2023/08/03 07:01:50;;;;;;;0.13;0.13;;;18.10;99.90;;;;;;5031327;28;20114;-64
2023/08/03 07:04:16;;;;;;;0.10;0.10;;;17.50;99.90;;;;;;5031746;28;20058;-67
2023/08/03 07:06:46;;;;;;;0.10;0.10;;;18.50;99.90;;;;;;5031539;28;20477;-65
2023/08/03 07:09:11;;;;;;;0.45;0.30;;;17.90;99.90;;;;;;5031315;28;20057;-66
2023/08/03 07:11:37;;;;;;;0.10;0.10;;;17.70;99.90;;;;;;5031216;28;20056;-65
2023/08/03 07:14:03;;;;;;;0.13;0.13;;;17.90;99.90;;;;;;5031351;28;20541;-65
2023/08/03 07:16:29;;;;;;;0.10;0.10;;;17.70;99.90;;;;;;5030846;28;20561;-68
2023/08/03 07:18:55;;;;;;;0.15;0.15;;;18.40;99.90;;;;;;5065659;27;20087;-72
2023/08/03 07:21:21;;;;;;;0.10;0.10;;;18.30;99.90;;;;;;5034246;28;20413;-65
2023/08/03 07:23:46;;;;;;;0.10;0.10;;;18.40;99.90;;;;;;5034007;28;20045;-68
2023/08/03 07:26:16;;;;;;;0.10;0.10;;;18.50;99.90;;;;;;5030409;28;20053;-66
2023/08/03 07:28:42;;;;;;;0.13;0.13;;;18.40;99.90;;;;;;5030919;28;20189;-66
2023/08/03 07:31:14;;;;;;;0.30;0.30;;;18.10;99.90;;;;;;5030732;28;20053;-66
2023/08/03 07:33:40;;;;;;;0.10;0.10;;;18.60;99.90;;;;;;5029861;28;20050;-65
2023/08/03 07:36:06;;;;;;;1.13;1.08;;;18.60;99.90;;;;;;5030508;27;20115;-65
2023/08/03 07:38:31;;;;;;;0.30;0.30;;;18.40;99.90;;;;;;5030994;28;20049;-67
2023/08/03 07:40:57;;;;;;;4.68;1.08;;;18.60;99.90;;;;;;5030285;28;20056;-66
2023/08/03 07:43:23;;;;;;;2.30;0.43;;;18.40;99.90;;;;;;5030563;28;20104;-65
2023/08/03 07:45:48;;;;;;;0.10;0.10;;;19.50;99.90;;;;;;5031078;28;20056;-66
2023/08/03 07:48:14;;;;;;;0.22;0.22;;;19.40;99.90;;;;;;5029986;28;20051;-65
2023/08/03 07:50:40;;;;;;;0.75;0.73;;;18.90;99.90;;;;;;5030114;28;20057;-66
2023/08/03 07:53:05;;;;;;;0.17;0.17;;;18.90;99.90;;;;;;5030250;28;20046;-65
2023/08/03 07:55:34;;;;;;;0.10;0.10;;;19.30;99.90;;;;;;5098217;27;20054;-65
2023/08/03 07:58:00;;;;;;;0.13;0.13;;;19.60;99.90;;;;;;5033334;27;20056;-69
2023/08/03 08:00:25;;;;;;;0.08;0.08;;;19.00;99.90;;;;;;5030036;28;20413;-66
2023/08/03 08:02:51;;;;;;;0.10;0.10;;;19.10;99.90;;;;;;5028902;28;20060;-65
2023/08/03 08:05:17;;;;;;;0.20;0.17;;;18.90;99.90;;;;;;5029948;28;20391;-67
2023/08/03 08:07:42;;;;;;;0.75;0.57;;;18.80;99.90;;;;;;5030069;28;20042;-69
2023/08/03 08:10:11;;;;;;;0.10;0.10;;;18.70;99.90;;;;;;5029298;28;20125;-68
2023/08/03 08:12:37;;;;;;;0.13;0.13;;;19.20;99.90;;;;;;5029796;28;20056;-65
2023/08/03 08:15:04;;;;;;;0.28;0.28;;;19.20;99.90;;;;;;5028763;28;20388;-66
2023/08/03 08:17:29;;;;;;;0.20;0.20;;;19.80;99.90;;;;;;5029017;28;20061;-69
2023/08/03 08:19:59;;;;;;;0.10;0.10;;;19.60;99.90;;;;;;5027681;28;20414;-68
2023/08/03 08:22:24;;;;;;;1.45;0.98;;;19.70;99.90;;;;;;5009731;28;20500;-68
2023/08/03 08:24:50;;;;;;;0.20;0.20;;;19.30;99.90;;;;;;5009536;28;20050;-67
2023/08/03 08:27:16;;;;;;;0.30;0.30;;;19.60;99.90;;;;;;5011385;27;20045;-65
2023/08/03 08:29:45;;;;;;;0.45;0.45;;;19.40;99.90;;;;;;5029936;28;20057;-67
2023/08/03 08:32:11;;;;;;;0.20;0.10;;;19.50;99.90;;;;;;5028814;28;20544;-68
2023/08/03 08:34:37;;;;;;;0.30;0.30;;;19.20;99.90;;;;;;5029444;28;20152;-69
2023/08/03 08:37:03;;;;;;;0.10;0.10;;;19.10;99.90;;;;;;5029134;28;20053;-67
2023/08/03 08:39:29;;;;;;;0.25;0.22;;;19.20;99.90;;;;;;5029038;28;20050;-68
2023/08/03 08:41:55;;;;;;;0.30;0.30;;;19.70;99.90;;;;;;5029482;28;20049;-68
2023/08/03 08:44:21;;;;;;;0.17;0.17;;;19.80;99.90;;;;;;5029528;28;20079;-68
2023/08/03 08:46:48;;;;;;;0.15;0.15;;;19.80;99.90;;;;;;5027625;28;20045;-67
2023/08/03 08:49:14;;;;;;;1.60;0.57;;;19.90;99.90;;;;;;5029376;28;20049;-67
2023/08/03 08:51:43;;;;;;;1.42;0.90;;;19.60;99.90;;;;;;5029239;28;20576;-67
2023/08/03 08:54:09;;;;;;;1.98;0.73;;;20.10;99.90;;;;;;5028770;28;20401;-67
2023/08/03 08:56:35;;;;;;;0.30;0.30;;;20.10;99.90;;;;;;5029265;28;20056;-67
2023/08/03 08:59:02;;;;;;;0.30;0.30;;;20.10;99.90;;;;;;5029197;28;20049;-67
2023/08/03 09:01:46;;;;;;;1.33;1.25;;;20.20;99.90;;;;;;5028393;28;20143;-69
2023/08/03 09:04:12;;;;;;;0.08;0.08;;;20.40;99.90;;;;;;5028576;28;20505;-67
2023/08/03 09:06:44;;;;;;;0.35;0.35;;;20.00;99.90;;;;;;5029113;28;20061;-69
2023/08/03 09:09:10;;;;;;;1.38;0.47;;;20.00;99.90;;;;;;5089994;28;20213;-68
2023/08/03 09:11:40;;;;;;;0.10;0.10;;;19.90;99.90;;;;;;5111703;28;20496;-69
2023/08/03 09:14:07;;;;;;;2.38;0.68;;;20.30;99.90;;;;;;5111582;28;20491;-67
2023/08/03 09:16:33;;;;;;;2.20;0.63;;;20.60;99.90;;;;;;5111784;28;20191;-69
2023/08/03 09:18:59;;;;;;;0.22;0.20;;;20.40;99.90;;;;;;5112137;28;20472;-68
2023/08/03 09:21:26;;;;;;;0.20;0.20;;;20.50;99.90;;;;;;5112365;28;20057;-69
2023/08/03 09:23:51;;;;;;;0.30;0.30;;;20.70;99.90;;;;;;5111852;28;20047;-67
2023/08/03 09:26:24;;;;;;;0.65;0.32;;;21.30;99.90;;;;;;5105779;28;20134;-68
2023/08/03 09:28:51;;;;;;;0.20;0.20;;;20.90;99.90;;;;;;5028601;28;20130;-67
2023/08/03 09:31:23;;;;;;;1.60;0.95;;;20.60;99.90;;;;;;5027848;28;20060;-69
2023/08/03 09:33:57;;;;;;;0.00;0.00;;;20.20;99.90;;;;;;5028390;28;20048;-69
2023/08/03 09:36:22;;;;;;;1.23;0.98;;;19.90;99.90;;;;;;5026685;28;20790;-68
2023/08/03 09:38:48;;;;;;;0.10;0.10;;;19.50;99.90;;;;;;5026684;28;20045;-68
2023/08/03 09:41:27;;;;;;;0.45;0.45;;;19.80;99.90;;;;;;5028167;28;20053;-67
2023/08/03 09:43:53;;;;;;;0.10;0.10;;;20.00;99.90;;;;;;5032811;28;20439;-69
2023/08/03 09:46:20;;;;;;;0.40;0.40;;;20.00;99.90;;;;;;5027096;28;20056;-68
2023/08/03 09:48:45;;;;;;;0.68;0.68;;;20.00;99.90;;;;;;5027973;28;20049;-68
2023/08/03 09:51:12;;;;;;;0.10;0.10;;;20.30;99.90;;;;;;5027122;28;20048;-68
2023/08/03 09:53:40;;;;;;;0.52;0.52;;;20.10;99.90;;;;;;5026951;28;20053;-68
2023/08/03 09:56:06;;;;;;;3.20;0.57;;;20.30;99.90;;;;;;5027935;28;20049;-68
2023/08/03 09:58:49;;;;;;;0.47;0.28;;;20.60;99.90;;;;;;5027646;28;20059;-70
2023/08/03 10:01:20;;;;;;;0.10;0.10;;;20.70;99.90;;;;;;5026665;28;20809;-68
2023/08/03 10:03:50;;;;;;;0.60;0.10;;;20.70;99.90;;;;;;5022807;28;20057;-69
2023/08/03 10:06:23;;;;;;;0.43;0.43;;;20.70;99.90;;;;;;5028010;28;20054;-69
2023/08/03 10:08:56;;;;;;;0.20;0.20;;;20.50;99.90;;;;;;5026814;28;20053;-74
2023/08/03 10:11:25;;;;;;;0.10;0.10;;;20.40;99.90;;;;;;5024078;27;20129;-67
2023/08/03 10:13:52;;;;;;;0.10;0.10;;;20.90;99.90;;;;;;5028756;28;20084;-66
2023/08/03 10:16:19;;;;;;;0.10;0.10;;;20.80;99.90;;;;;;5093823;28;20047;-69
2023/08/03 10:18:46;;;;;;;0.10;0.10;;;21.20;99.90;;;;;;5132195;27;20514;-65
2023/08/03 10:21:12;;;;;;;0.10;0.10;;;21.20;99.90;;;;;;5131959;28;20047;-67
2023/08/03 10:23:39;;;;;;;0.20;0.20;;;21.50;99.90;;;;;;5132129;27;20035;-67
2023/08/03 10:26:07;;;;;;;0.15;0.15;;;21.20;99.90;;;;;;5030096;27;20057;-66
2023/08/03 10:28:38;;;;;;;0.25;0.25;;;21.10;99.90;;;;;;5028501;28;20060;-66
2023/08/03 10:31:07;;;;;;;0.10;0.10;;;21.00;99.90;;;;;;5057976;28;20477;-66
2023/08/03 10:33:49;;;;;;;0.20;0.20;;;21.30;99.90;;;;;;5033566;28;20054;-65
2023/08/03 10:36:35;;;;;;;0.00;0.00;;;21.10;99.90;;;;;;5039133;28;20046;-66
2023/08/03 10:39:04;;;;;;;0.15;0.15;;;21.50;99.90;;;;;;5025654;28;20049;-66
2023/08/03 10:41:37;;;;;;;0.22;0.22;;;21.40;99.90;;;;;;5025511;28;20048;-66
2023/08/03 10:44:06;;;;;;;0.10;0.10;;;21.70;99.90;;;;;;5027743;28;20042;-66
2023/08/03 10:46:40;;;;;;;0.60;0.15;;;21.70;99.90;;;;;;5027289;28;20140;-66
2023/08/03 10:49:24;;;;;;;0.10;0.10;;;21.50;99.90;;;;;;5025483;28;20052;-66
2023/08/03 10:51:55;;;;;;;1.88;0.35;;;21.30;99.90;;;;;;5025752;28;20549;-66
2023/08/03 10:54:31;;;;;;;0.30;0.25;;;21.50;99.90;;;;;;5027009;28;20048;-66
2023/08/03 10:57:06;;;;;;;0.10;0.10;;;21.20;99.90;;;;;;5027474;28;20040;-66
2023/08/03 10:59:52;;;;;;;0.10;0.10;;;21.00;99.90;;;;;;5027304;28;20041;-67
2023/08/03 11:02:25;;;;;;;;;;;21.00;99.90;;;;;;5027031;28;20065;-66
2023/08/03 11:04:51;;;;;;;;;;;20.70;99.90;;;;;;5028367;28;19921;-67
2023/08/03 11:07:20;;;;;;;;;;;21.00;99.90;;;;;;5058134;28;20328;-65
2023/08/03 11:09:48;;;;;;;;;;;21.10;99.90;;;;;;5112067;28;19935;-66
2023/08/03 11:12:16;;;;;;;;;;;21.50;99.90;;;;;;5115781;28;19943;-66
2023/08/03 11:14:42;;;;;;;;;;;21.80;99.90;;;;;;5115738;28;19919;-66
2023/08/03 11:17:09;;;;;;;;;;;21.70;99.90;;;;;;5115560;28;19920;-66
2023/08/03 11:19:37;;;;;;;;;;;22.00;99.90;;;;;;5115504;28;19924;-67
2023/08/03 11:22:03;;;;;;;;;;;21.90;99.90;;;;;;5115333;28;19920;-66
2023/08/03 11:24:32;;;;;;;;;;;21.70;99.90;;;;;;5115391;28;19930;-66
2023/08/03 11:26:58;;;;;;;;;;;21.70;99.90;;;;;;5114086;28;19923;-66
2023/08/03 11:29:24;;;;;;;;;;;21.70;99.90;;;;;;5115299;28;19970;-66
2023/08/03 11:31:50;;;;;;;;;;;21.50;99.90;;;;;;5115234;28;19924;-66
2023/08/03 11:34:16;;;;;;;;;;;21.80;99.90;;;;;;5115210;28;19928;-69
2023/08/03 11:36:48;;;;;;;;;;;21.90;99.90;;;;;;5115193;28;19920;-67
2023/08/03 11:39:14;;;;;;;;;;;22.00;99.90;;;;;;5115079;28;19927;-66
2023/08/03 11:41:40;;;;;;;;;;;21.80;99.90;;;;;;5115086;28;20002;-68
2023/08/03 11:44:06;;;;;;;;;;;21.60;99.90;;;;;;5115013;28;19985;-67
2023/08/03 11:46:32;;;;;;;;;;;21.10;99.90;;;;;;5114951;28;19928;-68
2023/08/03 11:48:58;;;;;;;;;;;20.40;99.90;;;;;;5114940;28;19919;-64
2023/08/03 11:51:33;;;;;;;;;;;19.70;99.90;;;;;;5114847;28;19926;-66
2023/08/03 11:54:06;;;;;;;;;;;19.80;99.90;;;;;;5114762;28;19927;-66
2023/08/03 11:56:35;;;;;;;;;;;19.50;99.90;;;;;;5114830;28;20387;-69
2023/08/03 11:59:04;;;;;;;;;;;20.10;99.90;;;;;;5113324;28;20393;-66
2023/08/03 12:01:30;;;;;;;;;;;20.30;99.90;;;;;;5115008;28;19930;-66
2023/08/03 12:04:09;;;;;;;;;;;20.30;99.90;;;;;;5114821;28;20367;-66
2023/08/03 12:06:50;;;;;;;;;;;22.80;99.90;;;;;;5114807;28;20001;-67
2023/08/03 12:09:17;;;;;;;;;;;20.60;99.90;;;;;;5090606;28;19921;-65
2023/08/03 12:11:42;;;;;;;;;;;20.10;99.90;;;;;;5030373;28;19925;-69
2023/08/03 12:14:09;;;;;;;;;;;20.20;99.90;;;;;;5030294;28;20000;-66
2023/08/03 12:16:36;;;;;;;;;;;20.20;99.90;;;;;;5030752;28;20383;-67
2023/08/03 12:19:03;;;;;;;;;;;20.50;99.90;;;;;;5030432;28;20453;-67
2023/08/03 12:21:28;;;;;;;;;;;20.40;99.90;;;;;;5030723;28;20069;-66
2023/08/03 12:23:54;;;;;;;;;;;20.20;99.90;;;;;;5030331;28;20012;-66
2023/08/03 12:26:19;;;;;;;;;;;19.70;99.90;;;;;;5030611;28;19945;-65
2023/08/03 12:28:45;;;;;;;;;;;20.00;99.90;;;;;;5029274;28;19929;-70
2023/08/03 12:31:11;;;;;;;;;;;19.90;99.90;;;;;;5030250;28;20008;-67
2023/08/03 12:33:36;;;;;;;;;;;19.60;99.90;;;;;;5030315;28;20267;-65
2023/08/03 12:36:02;;;;;;;;;;;19.70;99.90;;;;;;5030131;28;19921;-67
2023/08/03 12:38:27;;;;;;;;;;;19.60;99.90;;;;;;5030138;28;19971;-67
2023/08/03 12:40:53;;;;;;;;;;;19.20;99.90;;;;;;5030056;28;19929;-69
2023/08/03 12:43:19;;;;;;;;;;;20.10;99.90;;;;;;5030060;28;19993;-67
2023/08/03 12:45:44;;;;;;;;;;;19.80;99.90;;;;;;5030064;28;19925;-67
2023/08/03 12:48:10;;;;;;;;;;;20.40;99.90;;;;;;5029633;28;19925;-67
2023/08/03 12:50:35;;;;;;;;;;;20.50;99.90;;;;;;5028876;28;19981;-67
2023/08/03 12:53:01;;;;;;;;;;;20.40;99.90;;;;;;5030058;28;19950;-66
2023/08/03 12:55:26;;;;;;;;;;;20.50;99.90;;;;;;5029509;28;19921;-68
2023/08/03 12:57:52;;;;;;;;;;;20.20;99.90;;;;;;5030120;28;19971;-66
2023/08/03 13:00:18;;;;;;;;;;;20.40;99.90;;;;;;5029766;28;20385;-67
2023/08/03 13:02:43;;;;;;;;;;;20.50;99.90;;;;;;5029490;28;19981;-66
2023/08/03 13:05:09;;;;;;;;;;;20.40;99.90;;;;;;5029735;28;19925;-66
2023/08/03 13:07:34;;;;;;;;;;;19.90;99.90;;;;;;5029896;28;20371;-69
2023/08/03 13:10:00;;;;;;;;;;;19.80;99.90;;;;;;5029816;28;19951;-67
2023/08/03 13:12:26;;;;;;;;;;;20.00;99.90;;;;;;5029586;28;20063;-67
2023/08/03 13:14:51;;;;;;;;;;;19.90;99.90;;;;;;5029530;28;20007;-66